Time;durP1;ratioP1;P1;durP2;ratioP2;P2;SDS_P1;SDS_P2;PMS_P1;PMS_P2;Temp;Humidity;BMP_temperature;BMP_pressure;BME280_temperature;BME280_humidity;BME280_pressure;Samples;Min_cycle;Max_cycle;Signal;HPM_P1;HPM_P2
2021/01/20 00:02:42;;;;;;;0.75;0.73;;;3.30;1.40;;;4.35;72.71;95001.09;645231;212;31488;-74
2021/01/20 00:05:12;;;;;;;1.00;1.00;;;4.00;1.40;;;4.54;70.84;94996.02;640827;220;23684;-73
2021/01/20 00:10:22;;;;;;;1.00;0.70;;;4.50;1.40;;;4.94;67.57;94996.28;647871;216;31694;-72
2021/01/20 00:12:51;;;;;;;1.03;1.00;;;4.60;1.40;;;4.88;67.90;94995.95;640231;220;23496;-71
2021/01/20 00:15:21;;;;;;;0.70;0.50;;;4.40;1.40;;;4.90;67.42;94995.45;645450;218;42162;-72
2021/01/20 00:17:50;;;;;;;0.77;0.77;;;4.50;1.40;;;4.91;67.25;94991.69;643641;220;23543;-71
2021/01/20 00:20:19;;;;;;;1.53;1.00;;;4.50;1.40;;;4.87;67.56;94989.08;640172;220;24485;-71
2021/01/20 00:22:49;;;;;;;1.10;1.10;;;4.50;1.40;;;4.82;67.99;94986.09;641226;221;24491;-72
2021/01/20 00:25:17;;;;;;;0.90;0.50;;;4.40;1.40;;;4.69;69.01;94979.79;647995;215;42341;-72
2021/01/20 00:27:46;;;;;;;0.80;0.80;;;4.20;1.40;;;4.72;69.14;94981.06;642178;221;26817;-71
2021/01/20 00:30:16;;;;;;;1.47;0.80;;;4.30;1.40;;;4.59;69.86;94976.45;642794;221;24515;-72
2021/01/20 00:32:45;;;;;;;0.70;0.70;;;4.10;1.40;;;3.84;73.65;94982.24;640688;220;24493;-71
2021/01/20 00:35:14;;;;;;;0.80;0.80;;;3.10;1.40;;;3.26;76.84;94976.36;640904;221;24547;-72
2021/01/20 00:37:43;;;;;;;1.03;0.87;;;2.60;1.40;;;3.19;77.27;94979.42;644030;221;24482;-71
2021/01/20 00:40:13;;;;;;;1.10;1.10;;;2.40;1.40;;;3.05;77.83;94977.64;638517;221;25547;-72
2021/01/20 00:45:06;;;;;;;1.10;0.60;;;2.70;1.40;;;3.56;73.84;94966.65;621122;225;31896;-72
2021/01/20 00:50:11;;;;;;;0.70;0.50;;;3.60;1.40;;;4.24;69.63;94957.06;649120;216;31509;-72
2021/01/20 00:52:40;;;;;;;0.70;0.60;;;3.80;1.40;;;4.60;67.19;94953.09;639144;221;24612;-72
2021/01/20 00:55:12;;;;;;;1.03;0.63;;;4.20;1.40;;;4.75;66.22;94955.80;642181;221;24515;-72
2021/01/20 00:57:39;;;;;;;0.68;0.50;;;4.40;1.40;;;4.76;65.36;94954.18;637736;221;31694;-72
2021/01/20 01:00:09;;;;;;;2.10;0.80;;;4.30;1.40;;;4.82;64.85;94955.74;640201;221;23554;-73
2021/01/20 01:05:16;;;;;;;0.70;0.50;;;4.50;1.40;;;4.94;62.92;94959.48;648981;216;31638;-72
2021/01/20 01:07:45;;;;;;;0.80;0.50;;;4.50;1.40;;;4.91;63.22;94964.99;636595;221;31721;-72
2021/01/20 01:10:14;;;;;;;0.90;0.90;;;4.40;1.40;;;4.89;63.00;94971.08;641936;221;23469;-72
2021/01/20 01:12:43;;;;;;;0.73;0.60;;;4.40;1.40;;;4.90;62.19;94972.25;641303;221;24477;-72
2021/01/20 01:15:12;;;;;;;1.07;0.97;;;4.40;1.40;;;4.82;62.35;94975.34;641343;221;24497;-72
2021/01/20 01:17:41;;;;;;;0.80;0.80;;;4.30;1.40;;;4.82;61.78;94979.27;640715;221;24523;-71
2021/01/20 01:20:12;;;;;;;2.13;2.03;;;4.30;1.40;;;5.01;60.27;94977.11;640684;221;24499;-73
2021/01/20 01:22:41;;;;;;;0.80;0.73;;;4.50;1.40;;;5.03;60.60;94976.75;641234;221;24513;-72
2021/01/20 01:25:12;;;;;;;0.77;0.77;;;4.50;1.40;;;5.07;60.08;94971.66;641568;220;24496;-72
2021/01/20 01:27:41;;;;;;;0.70;0.70;;;4.50;1.40;;;5.25;58.99;94972.07;642839;221;24468;-72
2021/01/20 01:30:11;;;;;;;1.00;0.40;;;4.70;1.40;;;5.40;58.85;94972.87;634305;221;42306;-72
2021/01/20 01:35:15;;;;;;;0.50;0.30;;;4.70;1.40;;;5.28;58.54;94975.20;651471;212;31479;-74
2021/01/20 01:37:44;;;;;;;1.00;1.00;;;4.80;1.40;;;5.57;57.92;94973.88;641436;220;24876;-73
2021/01/20 01:40:13;;;;;;;0.60;0.60;;;5.10;1.40;;;5.32;59.20;94975.33;630547;221;24538;-72
2021/01/20 01:42:43;;;;;;;0.80;0.80;;;4.80;1.40;;;5.28;58.87;94985.16;630131;225;24553;-72
2021/01/20 01:45:13;;;;;;;0.80;0.60;;;4.70;1.40;;;5.20;59.73;94980.84;628701;225;26139;-72
2021/01/20 01:47:42;;;;;;;1.07;0.90;;;4.60;1.40;;;5.29;58.92;94980.03;627612;225;24546;-72
2021/01/20 01:50:12;;;;;;;0.60;0.60;;;4.80;1.40;;;5.56;57.32;94968.52;630728;225;24523;-73
2021/01/20 01:52:41;;;;;;;0.80;0.80;;;5.00;1.40;;;5.52;58.02;94976.99;655323;215;24435;-73
2021/01/20 01:55:10;;;;;;;0.40;0.30;;;5.00;1.40;;;5.45;58.00;94973.08;650795;215;31457;-72
2021/01/20 01:57:41;;;;;;;0.90;0.70;;;4.90;1.40;;;5.38;58.58;94972.21;654572;215;24557;-73
2021/01/20 02:02:43;;;;;;;0.70;0.37;;;4.80;1.40;;;5.23;59.43;94981.11;643871;216;31574;-73
2021/01/20 02:05:13;;;;;;;0.70;0.70;;;4.70;1.40;;;5.37;58.61;94975.61;640152;221;23796;-73
2021/01/20 02:07:42;;;;;;;0.77;0.73;;;4.80;1.40;;;5.32;59.32;94973.28;641448;221;24578;-73
2021/01/20 02:10:11;;;;;;;0.70;0.70;;;4.80;1.40;;;5.25;59.17;94966.20;640923;221;24521;-73
2021/01/20 02:12:41;;;;;;;0.70;0.70;;;4.70;1.40;;;5.23;59.53;94964.72;644403;221;31179;-72
2021/01/20 02:15:33;;;;;;;0.60;0.60;;;4.70;1.40;;;5.27;59.02;94966.67;640903;220;24460;-73
2021/01/20 02:18:18;;;;;;;0.70;0.37;;;4.70;1.40;;;5.21;59.22;94966.30;647856;216;31523;-71
2021/01/20 02:23:40;;;;;;;1.55;0.50;;;4.60;1.40;;;5.22;59.76;94963.06;646312;216;31497;-73
2021/01/20 02:26:37;;;;;;;0.53;0.53;;;4.60;1.40;;;4.91;61.21;94966.38;644143;219;27001;-73
2021/01/20 02:29:24;;;;;;;0.88;0.60;;;4.10;1.40;;;4.58;62.59;94957.66;645686;212;31669;-71
2021/01/20 02:31:53;;;;;;;1.10;0.50;;;3.80;1.40;;;4.45;62.93;94957.34;634537;221;31635;-72
2021/01/20 02:34:22;;;;;;;0.77;0.77;;;3.70;1.40;;;4.56;62.22;94955.53;642504;220;26665;-71
2021/01/20 02:36:51;;;;;;;0.63;0.63;;;3.90;1.40;;;4.49;62.67;94956.06;641885;221;24478;-71
2021/01/20 02:39:20;;;;;;;0.97;0.60;;;3.90;1.40;;;4.30;63.82;94961.56;636205;221;24547;-71
2021/01/20 02:44:24;;;;;;;0.80;0.40;;;3.30;1.40;;;4.09;64.62;94962.56;649344;212;31528;-71
2021/01/20 02:46:53;;;;;;;0.63;0.63;;;3.20;1.40;;;3.98;64.74;94965.38;641292;221;23495;-71
2021/01/20 02:49:22;;;;;;;0.60;0.60;;;3.10;1.40;;;3.88;64.83;94965.87;641152;221;24504;-71
2021/01/20 02:52:08;;;;;;;0.83;0.83;;;3.10;1.40;;;3.87;64.78;94962.39;642186;221;24464;-73
2021/01/20 02:54:46;;;;;;;0.60;0.37;;;3.00;1.40;;;3.75;65.29;94961.58;645571;216;31518;-71
2021/01/20 02:57:15;;;;;;;0.80;0.67;;;2.90;1.40;;;3.68;65.59;94957.77;642131;220;23853;-72
2021/01/20 02:59:44;;;;;;;0.80;0.80;;;2.90;1.40;;;3.52;66.02;94956.45;644538;221;24480;-72
2021/01/20 03:02:13;;;;;;;0.60;0.40;;;2.70;1.40;;;3.31;66.84;94954.44;640290;220;31627;-71
2021/01/20 03:04:42;;;;;;;0.87;0.87;;;2.50;1.40;;;3.10;67.93;94952.57;651085;216;23429;-71
2021/01/20 03:09:46;;;;;;;0.80;0.50;;;2.10;1.40;;;2.83;69.72;94960.97;649084;212;31519;-73
2021/01/20 03:12:15;;;;;;;0.80;0.80;;;2.10;1.40;;;2.92;69.16;94956.15;641588;221;23728;-72
2021/01/20 03:14:44;;;;;;;0.67;0.60;;;2.40;1.40;;;3.03;68.60;94952.09;641505;221;24519;-71
2021/01/20 03:17:13;;;;;;;0.80;0.80;;;2.60;1.40;;;3.30;67.17;94953.27;655001;215;24460;-71
2021/01/20 03:19:42;;;;;;;0.87;0.87;;;2.90;1.40;;;3.47;66.40;94949.98;674052;211;24424;-72
2021/01/20 03:22:11;;;;;;;0.50;0.50;;;3.10;1.40;;;3.33;67.03;94950.36;673019;211;25853;-72
2021/01/20 03:24:40;;;;;;;0.90;0.90;;;2.90;1.40;;;3.32;67.03;94947.41;655075;216;24461;-71
2021/01/20 03:27:09;;;;;;;0.80;0.70;;;2.90;1.40;;;3.24;68.78;94942.66;668923;211;24427;-72
2021/01/20 03:29:38;;;;;;;1.07;0.80;;;2.70;1.40;;;3.08;71.03;94935.27;670895;211;24451;-72
2021/01/20 03:32:07;;;;;;;1.00;0.83;;;2.60;1.40;;;2.96;73.84;94939.66;672301;211;24384;-72
2021/01/20 03:34:36;;;;;;;1.07;0.97;;;2.40;1.40;;;2.96;75.08;94934.03;669244;211;24422;-71
2021/01/20 03:37:05;;;;;;;0.90;0.90;;;2.50;1.40;;;2.94;76.25;94938.05;667615;211;24444;-72
2021/01/20 03:39:35;;;;;;;1.57;1.20;;;2.50;1.40;;;2.90;77.41;94930.98;663009;211;26590;-72
2021/01/20 03:42:04;;;;;;;1.23;1.13;;;2.50;1.40;;;2.84;77.82;94925.31;657945;215;24510;-71
2021/01/20 03:44:33;;;;;;;1.00;0.85;;;2.40;1.40;;;2.77;78.55;94926.15;650772;215;32198;-72
2021/01/20 03:47:02;;;;;;;0.70;0.60;;;2.30;1.40;;;2.74;78.52;94923.31;647762;216;31529;-72
2021/01/20 03:49:31;;;;;;;1.20;0.83;;;2.20;1.40;;;2.67;79.13;94921.98;658300;216;23897;-72
2021/01/20 03:52:00;;;;;;;0.90;0.60;;;2.10;1.40;;;2.55;79.17;94918.84;650101;215;31550;-71
2021/01/20 03:54:29;;;;;;;0.93;0.93;;;1.90;1.40;;;2.40;79.96;94913.52;627802;224;27768;-71
2021/01/20 03:56:58;;;;;;;0.97;0.97;;;1.80;1.40;;;2.30;80.12;94923.08;657039;215;24447;-71
2021/01/20 03:59:27;;;;;;;1.63;1.00;;;1.50;1.40;;;2.25;80.30;94923.39;654555;216;24998;-72
2021/01/20 04:01:56;;;;;;;0.80;0.80;;;1.70;1.40;;;2.08;80.52;94915.95;642867;220;24522;-72
2021/01/20 04:04:25;;;;;;;0.80;0.80;;;1.40;1.40;;;2.03;80.93;94914.58;655818;216;24439;-72
2021/01/20 04:06:54;;;;;;;1.60;1.20;;;1.40;1.40;;;1.82;81.02;94909.64;654478;216;24473;-72
2021/01/20 04:09:24;;;;;;;1.20;0.70;;;1.10;1.40;;;1.58;80.88;94908.67;622589;225;31875;-72
2021/01/20 04:11:53;;;;;;;0.90;0.90;;;0.60;1.40;;;1.16;82.26;94913.19;657243;215;23449;-72
2021/01/20 04:14:22;;;;;;;0.85;0.60;;;0.20;1.40;;;1.10;83.57;94910.29;650502;215;31541;-72
2021/01/20 04:16:51;;;;;;;1.10;1.00;;;0.20;1.40;;;1.04;83.32;94911.81;629554;225;23543;-72
2021/01/20 04:19:20;;;;;;;1.00;0.70;;;0.30;1.40;;;0.97;83.02;94909.69;631841;222;31684;-73
2021/01/20 04:21:49;;;;;;;1.02;0.70;;;0.10;1.40;;;0.78;82.68;94908.63;632620;223;31859;-72
2021/01/20 04:24:18;;;;;;;1.30;1.20;;;-0.20;1.40;;;0.54;82.75;94898.48;643057;220;23807;-72
2021/01/20 04:26:47;;;;;;;0.80;0.80;;;-0.50;1.40;;;0.24;83.53;94903.59;659375;215;24455;-72
2021/01/20 04:29:16;;;;;;;0.50;0.40;;;-0.90;1.40;;;0.37;84.71;94908.39;636699;220;31739;-72
2021/01/20 04:31:45;;;;;;;1.03;0.93;;;-0.30;1.40;;;0.35;84.16;94909.08;643796;220;23487;-73
2021/01/20 04:34:14;;;;;;;0.73;0.70;;;-0.30;1.40;;;0.35;84.53;94903.32;651476;215;31513;-72
2021/01/20 04:36:43;;;;;;;1.40;1.30;;;-0.20;1.40;;;0.41;84.42;94897.27;639575;220;23495;-71
2021/01/20 04:39:12;;;;;;;1.00;1.00;;;-0.10;1.40;;;0.36;84.04;94904.28;642575;220;24775;-72
2021/01/20 04:41:41;;;;;;;1.17;1.07;;;-0.30;1.40;;;0.24;84.87;94903.17;654697;215;24514;-72
2021/01/20 04:44:10;;;;;;;0.87;0.87;;;-0.50;1.40;;;0.48;85.18;94894.76;658359;215;24491;-72
2021/01/20 04:46:39;;;;;;;1.00;1.00;;;0.00;1.40;;;0.55;84.84;94897.42;635421;225;26716;-72
2021/01/20 04:49:09;;;;;;;1.50;1.20;;;0.20;1.40;;;0.85;83.63;94896.83;631333;224;24572;-72
2021/01/20 04:51:38;;;;;;;1.60;1.50;;;0.60;1.40;;;0.96;82.67;94894.90;633349;225;28842;-71
2021/01/20 04:54:07;;;;;;;1.00;1.00;;;0.70;1.40;;;0.88;82.69;94895.67;628947;225;24551;-73
2021/01/20 04:56:36;;;;;;;1.00;0.62;;;0.40;1.40;;;0.90;82.55;94894.30;651666;215;31525;-72
2021/01/20 04:59:05;;;;;;;1.23;1.07;;;0.50;1.40;;;0.65;82.35;94898.69;653524;216;24585;-72
2021/01/20 05:01:34;;;;;;;1.00;1.00;;;-0.10;1.40;;;0.32;83.84;94897.48;631161;225;24548;-72
2021/01/20 05:04:03;;;;;;;0.83;0.83;;;-0.40;1.40;;;0.20;84.44;94896.26;654314;216;25230;-72
2021/01/20 05:09:06;;;;;;;1.50;0.80;;;-0.70;1.40;;;-0.18;86.13;94899.63;648626;212;31532;-73
2021/01/20 05:11:36;;;;;;;1.23;1.13;;;-1.10;1.40;;;-0.26;87.86;94891.84;644007;221;23484;-73
2021/01/20 05:14:10;;;;;;;1.30;1.20;;;-1.10;1.40;;;0.03;89.01;94897.78;638641;221;24595;-72
2021/01/20 05:16:39;;;;;;;1.50;0.70;;;-0.40;1.40;;;0.65;86.72;94885.04;636174;221;31737;-72
2021/01/20 05:19:08;;;;;;;1.50;1.50;;;0.50;1.40;;;0.76;85.08;94889.09;640018;221;25591;-73
2021/01/20 05:21:37;;;;;;;1.77;1.67;;;0.60;1.40;;;0.82;84.73;94887.26;645203;221;24495;-73
2021/01/20 05:24:23;;;;;;;1.40;0.80;;;0.50;1.40;;;0.73;84.87;94889.73;633837;221;31780;-73
2021/01/20 05:26:52;;;;;;;1.40;1.30;;;0.30;1.40;;;0.91;84.98;94890.09;639027;220;27786;-73
2021/01/20 05:29:21;;;;;;;1.35;0.80;;;0.60;1.40;;;0.99;84.87;94884.61;634079;220;31799;-73
2021/01/20 05:31:50;;;;;;;1.80;1.70;;;0.70;1.40;;;1.08;84.60;94888.34;641245;221;23479;-73
2021/01/20 05:36:10;;;;;;;1.70;0.90;;;0.80;1.40;;;1.09;84.21;94891.45;619003;222;32806;-73
2021/01/20 05:38:41;;;;;;;1.60;1.50;;;0.70;1.40;;;1.02;84.09;94884.09;613813;230;24642;-72
2021/01/20 05:41:20;;;;;;;2.20;1.10;;;0.50;1.40;;;0.82;84.21;94880.86;601073;234;32454;-73
2021/01/20 05:43:49;;;;;;;2.50;1.50;;;0.10;1.40;;;0.49;85.69;94886.50;604282;233;25981;-72
2021/01/20 05:46:33;;;;;;;1.33;1.20;;;-0.30;1.40;;;0.35;86.90;94886.25;600352;234;32327;-73
2021/01/20 05:49:02;;;;;;;1.97;1.60;;;-0.50;1.40;;;0.02;88.96;94892.39;606069;233;24622;-73
2021/01/20 05:51:42;;;;;;;1.40;1.40;;;-0.80;1.40;;;0.24;89.17;94886.22;603530;234;24699;-74
2021/01/20 05:54:11;;;;;;;3.13;1.67;;;-0.40;1.40;;;0.70;87.90;94882.67;604320;234;25784;-73
2021/01/20 05:56:40;;;;;;;1.63;1.53;;;0.30;1.40;;;0.93;85.75;94883.94;605241;234;25687;-72
2021/01/20 05:59:11;;;;;;;1.27;1.27;;;0.70;1.40;;;1.00;85.23;94881.73;607038;233;25768;-72
2021/01/20 06:01:39;;;;;;;0.90;0.80;;;0.60;1.40;;;0.84;85.83;94875.80;600778;233;43142;-72
2021/01/20 06:04:09;;;;;;;1.60;1.50;;;0.50;1.40;;;0.87;86.30;94882.44;618865;229;31060;-73
2021/01/20 06:06:38;;;;;;;1.27;1.17;;;0.50;1.40;;;0.98;86.46;94879.81;604251;234;25749;-73
2021/01/20 06:09:07;;;;;;;0.95;0.70;;;0.70;1.40;;;1.05;85.93;94871.67;606600;232;32411;-72
2021/01/20 06:11:36;;;;;;;1.20;1.08;;;0.70;1.40;;;1.10;85.54;94871.54;609904;229;32552;-72
2021/01/20 06:14:05;;;;;;;1.05;0.90;;;0.70;1.40;;;1.26;85.47;94870.89;610533;229;42866;-72
2021/01/20 06:16:34;;;;;;;1.40;1.30;;;0.90;1.40;;;1.34;85.09;94873.04;614017;229;23629;-73
2021/01/20 06:21:39;;;;;;;1.50;0.93;;;1.00;1.40;;;1.41;85.00;94872.16;646727;212;31538;-71
2021/01/20 06:24:14;;;;;;;1.10;0.90;;;1.00;1.40;;;1.42;85.01;94868.20;636452;221;31697;-72
2021/01/20 06:26:45;;;;;;;1.20;1.10;;;1.00;1.40;;;1.30;85.52;94870.05;640926;221;23505;-71
2021/01/20 06:31:51;;;;;;;1.45;0.77;;;0.60;1.40;;;1.28;87.40;94870.53;644779;212;41984;-72
2021/01/20 06:34:20;;;;;;;1.07;1.00;;;0.80;1.40;;;1.35;87.00;94870.38;639707;221;23458;-72
2021/01/20 06:36:49;;;;;;;1.70;0.90;;;1.00;1.40;;;1.35;87.08;94870.80;635482;220;31830;-72
2021/01/20 06:39:34;;;;;;;1.30;1.30;;;0.90;1.40;;;1.37;87.46;94869.84;637217;221;23519;-72
2021/01/20 06:42:04;;;;;;;1.37;1.30;;;1.00;1.40;;;1.41;87.62;94872.31;629039;225;27911;-73
2021/01/20 06:44:33;;;;;;;1.53;1.10;;;1.00;1.40;;;1.40;88.08;94869.96;641441;220;24514;-72
2021/01/20 06:47:02;;;;;;;1.50;1.43;;;0.90;1.40;;;1.44;88.43;94870.62;655825;215;25592;-73
2021/01/20 06:49:32;;;;;;;1.00;1.00;;;1.00;1.40;;;1.49;88.95;94868.42;657369;215;24469;-73
2021/01/20 06:52:07;;;;;;;1.30;1.30;;;1.10;1.40;;;1.52;88.68;94873.19;658524;215;25534;-73
2021/01/20 06:54:40;;;;;;;1.03;1.03;;;1.10;1.40;;;1.63;89.03;94873.38;654363;215;27792;-72
2021/01/20 06:57:35;;;;;;;1.70;1.60;;;1.20;1.40;;;1.73;88.32;94867.72;628152;225;24556;-73
2021/01/20 07:00:17;;;;;;;1.30;1.30;;;1.40;1.40;;;1.68;88.53;94870.38;640543;223;25680;-72
2021/01/20 07:03:01;;;;;;;2.17;1.27;;;1.30;1.40;;;1.71;88.42;94863.66;636281;222;24517;-72
2021/01/20 07:05:34;;;;;;;1.50;1.07;;;1.30;1.40;;;1.74;88.59;94865.31;640938;221;25627;-72
2021/01/20 07:08:03;;;;;;;1.57;1.17;;;1.30;1.40;;;1.72;88.79;94862.96;642927;221;24529;-73
2021/01/20 07:11:03;;;;;;;1.13;1.13;;;1.20;1.40;;;1.77;88.94;94864.79;657125;215;24512;-72
2021/01/20 07:13:34;;;;;;;1.73;1.43;;;1.30;1.40;;;1.76;88.80;94866.39;633505;225;24646;-73
2021/01/20 07:16:03;;;;;;;1.47;1.37;;;1.30;1.40;;;1.66;89.31;94866.17;655834;215;24483;-72
2021/01/20 07:18:32;;;;;;;0.90;0.90;;;1.20;1.40;;;1.62;89.71;94865.95;631796;224;25218;-72
2021/01/20 07:21:01;;;;;;;1.02;0.60;;;1.10;1.40;;;1.63;89.74;94868.57;627686;225;31872;-72
2021/01/20 07:23:31;;;;;;;1.47;1.20;;;1.20;1.40;;;1.67;89.67;94871.52;641459;220;25828;-71
2021/01/20 07:26:02;;;;;;;1.20;1.20;;;1.20;1.40;;;1.66;89.83;94867.30;639510;220;25611;-71
2021/01/20 07:28:29;;;;;;;1.20;1.20;;;1.20;1.40;;;1.70;89.70;94861.67;653539;216;24492;-70
2021/01/20 07:31:19;;;;;;;1.63;1.43;;;1.20;1.40;;;1.79;88.98;94862.02;642675;220;24528;-71
2021/01/20 07:33:51;;;;;;;1.10;1.00;;;1.40;1.40;;;1.85;88.65;94859.19;641265;220;27848;-71
2021/01/20 07:36:22;;;;;;;1.10;1.00;;;1.40;1.40;;;1.96;88.00;94852.45;653833;215;28800;-71
2021/01/20 07:38:49;;;;;;;1.40;1.30;;;1.50;1.40;;;2.01;87.46;94854.44;654321;215;24489;-73
2021/01/20 07:41:20;;;;;;;0.98;0.80;;;1.50;1.40;;;2.04;87.00;94857.48;637119;220;31697;-73
2021/01/20 07:43:51;;;;;;;1.30;1.03;;;1.60;1.40;;;2.05;86.92;94851.21;658028;215;23737;-74
2021/01/20 07:46:21;;;;;;;1.10;1.00;;;1.60;1.40;;;2.14;86.72;94846.67;641209;222;24509;-73
2021/01/20 07:48:51;;;;;;;2.70;1.30;;;1.60;1.40;;;2.18;86.32;94850.25;656425;215;24738;-73
2021/01/20 07:51:21;;;;;;;1.83;1.73;;;1.60;1.40;;;2.23;86.03;94847.31;642066;221;24492;-73
2021/01/20 07:53:59;;;;;;;1.00;1.00;;;1.70;1.40;;;2.30;85.74;94850.50;655573;215;24504;-72
2021/01/20 07:56:28;;;;;;;0.97;0.97;;;1.70;1.40;;;2.38;84.92;94843.76;644362;220;24525;-72
2021/01/20 07:58:58;;;;;;;1.20;0.80;;;1.80;1.40;;;2.47;84.24;94843.46;646996;215;31537;-72
2021/01/20 08:01:29;;;;;;;1.70;1.60;;;1.90;1.40;;;2.56;83.63;94850.63;640345;220;23528;-73
2021/01/20 08:03:58;;;;;;;1.20;1.20;;;1.90;1.40;;;2.65;83.00;94849.52;652551;215;24489;-73
2021/01/20 08:06:27;;;;;;;2.00;1.50;;;2.00;1.40;;;2.66;82.66;94853.53;644136;215;24557;-72
2021/01/20 08:08:57;;;;;;;1.03;1.00;;;2.00;1.40;;;2.78;81.95;94851.16;653541;215;25561;-73
2021/01/20 08:11:25;;;;;;;1.20;1.10;;;2.20;1.40;;;2.93;80.95;94851.95;634172;225;24820;-73
2021/01/20 08:13:54;;;;;;;1.27;0.93;;;2.30;1.40;;;3.04;79.89;94852.38;629165;225;24565;-72
2021/01/20 08:16:24;;;;;;;1.48;0.80;;;2.40;1.40;;;3.15;78.94;94848.98;650870;215;31526;-73
2021/01/20 08:18:53;;;;;;;1.17;1.07;;;2.60;1.40;;;3.36;78.00;94850.57;656340;215;24513;-73
2021/01/20 08:21:22;;;;;;;0.87;0.87;;;2.70;1.40;;;3.53;75.92;94855.27;641819;220;24514;-73
2021/01/20 08:23:53;;;;;;;1.00;1.00;;;2.90;1.40;;;3.58;74.92;94855.48;640863;220;24496;-73
2021/01/20 08:26:24;;;;;;;1.47;0.90;;;3.00;1.40;;;3.72;74.60;94852.66;649534;216;31857;-73
2021/01/20 08:29:07;;;;;;;1.50;1.20;;;3.00;1.40;;;3.87;73.35;94849.95;656494;216;24461;-73
2021/01/20 08:31:39;;;;;;;0.90;0.90;;;3.20;1.40;;;4.10;71.51;94849.31;653943;216;24481;-73
2021/01/20 08:34:17;;;;;;;1.37;1.10;;;3.40;1.40;;;4.14;70.25;94850.20;655442;215;25601;-73
2021/01/20 08:36:55;;;;;;;1.20;1.00;;;3.50;1.40;;;4.27;69.59;94846.20;634263;225;25771;-73
2021/01/20 08:39:24;;;;;;;0.80;0.80;;;3.60;1.40;;;4.40;68.06;94843.22;635965;223;31796;-73
2021/01/20 08:42:29;;;;;;;1.67;1.57;;;3.80;1.40;;;4.72;68.25;94841.39;656333;216;30060;-73
2021/01/20 08:47:48;;;;;;;2.50;0.95;;;4.40;1.40;;;5.37;64.44;94838.22;646642;216;31519;-69
2021/01/20 08:50:20;;;;;;;1.52;1.40;;;4.50;1.40;;;5.30;63.14;94843.78;637313;220;32380;-70
2021/01/20 08:52:51;;;;;;;1.90;1.80;;;4.50;1.40;;;5.37;62.79;94846.28;641781;220;23507;-70
2021/01/20 08:55:23;;;;;;;2.08;1.08;;;4.70;1.40;;;5.74;61.50;94844.31;635841;221;31740;-70
2021/01/20 08:58:20;;;;;;;1.23;0.77;;;5.00;1.40;;;6.22;62.19;94852.26;639836;220;24795;-70
2021/01/20 09:00:59;;;;;;;3.10;0.80;;;5.40;1.40;;;6.61;61.06;94853.16;640698;220;24520;-70
2021/01/20 09:03:30;;;;;;;2.10;1.47;;;5.70;1.40;;;6.90;60.08;94855.64;641710;220;24476;-71
2021/01/20 09:06:00;;;;;;;1.87;1.20;;;5.90;1.40;;;7.33;60.76;94856.70;640039;220;28774;-71
2021/01/20 09:08:29;;;;;;;1.20;1.00;;;6.30;1.40;;;7.68;56.59;94857.14;638864;221;24809;-71
2021/01/20 09:10:58;;;;;;;1.10;0.93;;;6.80;1.40;;;8.01;55.27;94852.39;643329;220;24529;-71
2021/01/20 09:13:27;;;;;;;0.97;0.97;;;7.20;1.40;;;8.60;52.92;94859.44;639184;220;24491;-71
2021/01/20 09:15:56;;;;;;;1.23;0.97;;;7.60;1.40;;;8.82;52.19;94855.87;639268;220;24538;-70
2021/01/20 09:18:25;;;;;;;2.23;1.00;;;7.30;1.40;;;8.79;53.39;94855.67;639475;221;24513;-71
2021/01/20 09:23:28;;;;;;;2.30;1.60;;;6.80;1.40;;;9.10;54.99;94844.15;647140;212;31605;-71
2021/01/20 09:25:57;;;;;;;2.60;1.77;;;6.90;1.40;;;8.73;55.32;94844.60;641294;221;24586;-70
2021/01/20 09:28:27;;;;;;;2.33;1.90;;;6.80;1.40;;;9.12;55.39;94848.22;641403;220;24534;-71
2021/01/20 09:30:56;;;;;;;2.22;1.55;;;7.00;1.40;;;9.56;53.38;94846.07;636426;220;31975;-70
2021/01/20 09:33:25;;;;;;;2.50;2.30;;;6.70;1.40;;;9.75;56.90;94846.49;637687;221;23455;-71
2021/01/20 09:35:54;;;;;;;1.80;1.53;;;6.70;1.40;;;10.41;54.60;94852.79;639827;221;24544;-71
2021/01/20 09:38:23;;;;;;;2.57;2.00;;;7.40;1.40;;;10.74;55.75;94846.78;641670;220;24504;-70
2021/01/20 09:40:52;;;;;;;1.47;1.37;;;8.00;1.40;;;10.42;52.74;94859.22;640388;221;24501;-70
2021/01/20 09:43:23;;;;;;;3.73;1.70;;;7.20;1.40;;;9.81;50.44;94849.03;636225;221;24563;-70
2021/01/20 09:45:51;;;;;;;1.40;1.30;;;7.00;1.40;;;9.08;56.55;94852.21;628565;225;25681;-70
2021/01/20 09:48:21;;;;;;;1.20;1.10;;;6.70;1.40;;;10.84;57.50;94848.31;631459;224;24552;-70
2021/01/20 09:53:23;;;;;;;1.50;1.30;;;8.10;1.40;;;11.68;52.46;94841.48;646108;212;42144;-71
2021/01/20 09:55:52;;;;;;;1.40;1.30;;;8.50;1.40;;;12.27;53.16;94839.17;641185;220;27956;-70
2021/01/20 10:00:58;;;;;;;2.17;1.45;;;9.50;1.40;;;13.03;50.10;94831.42;648468;216;31806;-69
2021/01/20 10:03:26;;;;;;;2.13;1.80;;;9.80;1.40;;;13.19;47.14;94825.79;638150;221;22586;-70
2021/01/20 10:08:29;;;;;;;1.40;1.15;;;9.90;1.40;;;12.63;48.18;94824.81;648432;212;31533;-69
2021/01/20 10:10:58;;;;;;;2.30;1.43;;;9.20;1.40;;;11.42;47.17;94815.70;640787;220;22509;-69
2021/01/20 10:16:02;;;;;;;1.50;1.30;;;8.90;1.40;;;13.13;47.04;94813.86;648717;212;37956;-70
2021/01/20 10:18:31;;;;;;;1.30;1.20;;;10.60;1.40;;;12.92;45.90;94808.47;634591;220;31717;-71
2021/01/20 10:21:00;;;;;;;1.50;1.40;;;10.20;1.40;;;12.82;46.81;94803.11;642508;221;22598;-69
2021/01/20 10:23:29;;;;;;;2.30;1.63;;;10.00;1.40;;;12.84;43.64;94799.41;640658;221;23505;-68
2021/01/20 10:28:33;;;;;;;1.70;1.40;;;9.80;1.40;;;11.97;44.62;94790.71;646469;216;31532;-70
2021/01/20 10:31:02;;;;;;;2.57;1.57;;;9.50;1.40;;;13.00;45.55;94784.82;640793;221;23499;-69
2021/01/20 10:33:31;;;;;;;2.10;1.43;;;9.30;1.40;;;12.15;46.43;94784.24;639567;221;23615;-69
2021/01/20 10:36:00;;;;;;;1.57;1.47;;;9.40;1.40;;;13.18;45.32;94775.52;641846;221;23556;-69
2021/01/20 10:38:29;;;;;;;2.10;1.60;;;10.70;1.40;;;13.25;42.48;94772.80;636754;221;31753;-71
2021/01/20 10:40:58;;;;;;;1.50;1.37;;;10.50;1.40;;;13.07;43.29;94762.35;635617;221;31753;-70
2021/01/20 10:43:27;;;;;;;2.50;1.60;;;10.50;1.40;;;14.50;39.59;94755.61;632562;221;31873;-69
2021/01/20 10:45:58;;;;;;;1.70;1.60;;;11.40;1.40;;;13.16;42.34;94753.05;629233;224;22531;-70
2021/01/20 10:48:26;;;;;;;2.50;1.50;;;10.40;1.40;;;14.42;41.78;94747.13;628321;224;24592;-70
2021/01/20 10:50:55;;;;;;;1.40;1.30;;;11.10;1.40;;;15.49;38.85;94746.62;627672;225;32091;-70
2021/01/20 10:53:24;;;;;;;1.63;1.50;;;11.90;1.40;;;13.99;38.93;94747.41;627131;224;24312;-70
2021/01/20 10:55:53;;;;;;;1.60;1.30;;;11.40;1.40;;;14.67;43.81;94736.25;624711;225;31842;-70
2021/01/20 10:58:23;;;;;;;1.73;1.20;;;11.20;1.40;;;15.22;41.95;94731.11;632829;224;23580;-70
2021/01/20 11:00:52;;;;;;;2.20;1.53;;;11.10;1.40;;;14.95;41.67;94726.14;654519;215;23500;-70
2021/01/20 11:03:21;;;;;;;1.63;1.50;;;10.90;1.40;;;15.88;44.10;94726.19;645649;220;23886;-70
2021/01/20 11:05:50;;;;;;;1.90;1.67;;;11.50;1.40;;;14.99;37.84;94725.38;628092;224;30329;-70
2021/01/20 11:08:19;;;;;;;1.20;1.10;;;11.40;1.40;;;16.03;37.09;94723.00;657936;215;23559;-70
2021/01/20 11:10:48;;;;;;;1.23;0.90;;;11.70;1.40;;;14.65;38.91;94719.02;654846;216;23474;-69
2021/01/20 11:13:17;;;;;;;3.80;1.43;;;11.30;1.40;;;16.48;40.00;94714.09;655574;215;23511;-70
2021/01/20 11:15:46;;;;;;;2.23;1.70;;;12.40;1.40;;;16.91;33.88;94707.32;655854;216;23581;-70
2021/01/20 11:20:50;;;;;;;1.95;1.40;;;12.00;1.40;;;17.95;34.35;94696.69;618569;222;31942;-70
2021/01/20 11:23:20;;;;;;;2.10;1.90;;;13.20;1.40;;;15.49;35.97;94697.52;616847;229;22540;-70
2021/01/20 11:25:51;;;;;;;1.60;1.10;;;12.60;1.40;;;16.10;34.58;94693.53;615289;230;25672;-70
2021/01/20 11:28:20;;;;;;;1.63;1.40;;;12.50;1.40;;;17.52;36.61;94686.77;616157;229;25668;-70
2021/01/20 11:30:50;;;;;;;1.83;1.00;;;12.90;1.40;;;17.06;34.09;94682.21;614528;229;24714;-70
2021/01/20 11:35:53;;;;;;;2.80;1.15;;;14.70;1.40;;;19.47;29.73;94672.53;646175;216;31703;-70
2021/01/20 11:38:23;;;;;;;1.87;1.27;;;15.10;1.40;;;19.52;35.26;94666.25;643566;220;22510;-70
2021/01/20 11:40:52;;;;;;;1.53;1.30;;;14.80;1.40;;;18.88;31.70;94666.16;640766;221;25640;-69
2021/01/20 11:43:21;;;;;;;2.40;1.80;;;14.40;1.40;;;19.34;29.48;94658.95;640701;221;23604;-69
2021/01/20 11:45:51;;;;;;;2.40;1.40;;;15.30;1.40;;;19.61;30.71;94661.73;627670;224;23634;-69
2021/01/20 11:48:21;;;;;;;1.37;1.23;;;15.20;1.40;;;20.61;32.43;94655.03;629546;224;23609;-70
2021/01/20 11:50:50;;;;;;;1.40;1.30;;;15.50;1.40;;;22.05;27.13;94648.70;631577;225;23557;-70